Time;durP1;ratioP1;P1;durP2;ratioP2;P2;SDS_P1;SDS_P2;PMS_P1;PMS_P2;Temp;Humidity;BMP_temperature;BMP_pressure;BME280_temperature;BME280_humidity;BME280_pressure;Samples;Min_cycle;Max_cycle;Signal;HPM_P1;HPM_P2
2023/10/01 00:00:34;;;;;;;4.63;4.22;;;;;;;17.71;48.59;95250.66;5098548;28;20184;-64
2023/10/01 00:03:04;;;;;;;4.93;4.40;;;;;;;17.70;49.37;95247.06;5081340;28;20211;-64
2023/10/01 00:05:32;;;;;;;4.82;4.40;;;;;;;17.61;50.69;95243.06;5080604;28;20549;-64
2023/10/01 00:07:59;;;;;;;4.90;4.50;;;;;;;17.44;51.96;95239.03;5098165;28;20188;-65
2023/10/01 00:10:27;;;;;;;5.78;4.88;;;;;;;17.29;52.70;95243.75;5098622;28;20192;-65
2023/10/01 00:12:58;;;;;;;5.10;4.60;;;;;;;17.14;53.01;95230.94;5098366;28;20184;-65
2023/10/01 00:15:29;;;;;;;8.73;4.45;;;;;;;17.03;53.66;95234.50;5098772;28;20203;-65
2023/10/01 00:17:58;;;;;;;4.93;4.40;;;;;;;16.96;53.83;95234.44;5080263;28;20204;-65
2023/10/01 00:20:27;;;;;;;5.65;5.05;;;;;;;16.89;54.33;95236.41;5081252;28;20219;-65
2023/10/01 00:23:02;;;;;;;5.45;4.95;;;;;;;16.79;54.45;95230.38;5098835;28;20204;-65
2023/10/01 00:25:31;;;;;;;6.38;4.68;;;;;;;16.72;54.65;95241.44;5080505;28;20669;-65
2023/10/01 00:27:59;;;;;;;6.45;4.50;;;;;;;16.65;54.65;95237.81;5080300;28;20531;-65
2023/10/01 00:30:31;;;;;;;6.03;4.57;;;;;;;16.56;54.89;95238.16;5098478;28;20219;-65
2023/10/01 00:33:00;;;;;;;5.70;4.72;;;;;;;16.49;55.45;95235.31;5080025;28;20208;-65
2023/10/01 00:35:29;;;;;;;4.75;4.25;;;;;;;16.43;55.48;95242.44;5079970;28;20291;-65
2023/10/01 00:37:56;;;;;;;4.57;4.18;;;;;;;16.40;55.34;95237.63;5080410;28;20192;-65
2023/10/01 00:40:24;;;;;;;4.97;4.35;;;;;;;16.30;55.56;95228.84;5081028;28;20195;-65
2023/10/01 00:42:51;;;;;;;5.07;4.47;;;;;;;16.26;55.99;95236.31;5080711;28;20275;-65
2023/10/01 00:45:21;;;;;;;4.90;4.28;;;;;;;16.22;56.03;95234.72;5080952;28;20650;-65
2023/10/01 00:47:51;;;;;;;5.25;4.72;;;;;;;16.17;56.00;95233.09;5095829;28;20213;-65
2023/10/01 00:50:21;;;;;;;9.02;4.93;;;;;;;16.13;56.43;95237.84;5097779;28;20208;-64
2023/10/01 00:52:49;;;;;;;8.38;5.10;;;;;;;16.09;56.61;95237.00;5097732;28;20199;-64
2023/10/01 00:55:18;;;;;;;5.60;4.72;;;;;;;16.07;56.46;95244.91;5080050;28;20197;-65
2023/10/01 00:57:49;;;;;;;6.43;4.80;;;;;;;16.03;57.11;95238.53;5085120;28;20255;-65
2023/10/01 01:00:17;;;;;;;4.72;4.28;;;;;;;15.97;57.26;95235.28;5100547;28;20191;-64
2023/10/01 01:02:56;;;;;;;5.55;5.05;;;;;;;15.92;56.68;95224.53;5100996;28;20192;-65
2023/10/01 01:05:28;;;;;;;5.22;4.45;;;;;;;15.87;57.19;95233.22;5117766;28;20511;-64
2023/10/01 01:08:00;;;;;;;5.97;4.68;;;;;;;15.84;57.56;95234.78;5100420;28;20203;-65
2023/10/01 01:10:31;;;;;;;5.03;4.60;;;;;;;15.83;57.43;95232.38;5100004;28;20261;-65
2023/10/01 01:13:00;;;;;;;7.68;4.50;;;;;;;15.85;57.43;95233.59;5100603;28;20207;-65
2023/10/01 01:15:34;;;;;;;4.80;4.40;;;;;;;15.87;57.39;95238.78;5099671;28;20616;-65
2023/10/01 01:18:05;;;;;;;4.32;3.92;;;;;;;15.83;57.12;95230.41;5100653;28;20196;-65
2023/10/01 01:20:36;;;;;;;5.72;4.80;;;;;;;15.91;57.13;95233.25;5100714;28;20194;-65
2023/10/01 01:23:09;;;;;;;5.10;4.63;;;;;;;15.97;56.88;95229.72;5117486;28;20231;-65
2023/10/01 01:25:38;;;;;;;5.40;4.72;;;;;;;16.03;56.66;95239.31;5117569;28;20615;-65
2023/10/01 01:28:12;;;;;;;4.90;4.25;;;;;;;16.10;55.98;95233.03;5099674;28;20216;-65
2023/10/01 01:30:42;;;;;;;6.13;4.72;;;;;;;16.12;56.25;95233.44;5117516;28;20245;-65
2023/10/01 01:33:12;;;;;;;6.97;4.72;;;;;;;16.11;56.29;95231.84;5117074;28;20188;-64
2023/10/01 01:35:42;;;;;;;4.93;4.28;;;;;;;16.12;56.02;95231.47;5117619;28;20191;-65
2023/10/01 01:38:11;;;;;;;5.55;4.85;;;;;;;16.18;55.53;95228.31;5099910;28;20192;-65
2023/10/01 01:40:40;;;;;;;5.15;4.65;;;;;;;16.19;55.63;95227.13;5100188;28;20487;-64
2023/10/01 01:43:16;;;;;;;4.60;4.20;;;;;;;16.19;54.60;95227.13;5099097;28;20194;-64
2023/10/01 01:45:46;;;;;;;4.82;4.43;;;;;;;16.15;55.62;95227.09;5117086;28;20179;-64
2023/10/01 01:48:26;;;;;;;4.97;4.55;;;;;;;16.09;55.97;95225.88;5116907;28;20664;-64
2023/10/01 01:50:55;;;;;;;6.07;4.40;;;;;;;16.07;55.81;95231.81;5116750;28;20228;-64
2023/10/01 01:53:27;;;;;;;4.65;4.07;;;;;;;16.02;56.46;95231.38;5117367;28;20253;-64
2023/10/01 01:55:59;;;;;;;7.70;4.45;;;;;;;15.99;55.89;95232.13;5116965;28;20275;-65
2023/10/01 01:58:30;;;;;;;4.70;4.20;;;;;;;15.98;56.08;95222.19;5105864;28;20236;-65
2023/10/01 02:01:08;;;;;;;5.47;4.68;;;;;;;16.09;55.22;95223.88;5096519;28;20618;-64
2023/10/01 02:03:37;;;;;;;6.35;4.93;;;;;;;16.17;55.05;95229.50;5079570;28;20184;-64
2023/10/01 02:06:09;;;;;;;4.85;4.35;;;;;;;16.13;55.61;95221.94;5078302;28;20196;-65
2023/10/01 02:08:49;;;;;;;4.97;4.53;;;;;;;16.05;55.94;95222.25;5078878;28;20501;-65
2023/10/01 02:11:18;;;;;;;4.93;4.47;;;;;;;16.00;56.24;95220.63;5079289;28;20202;-65
2023/10/01 02:13:46;;;;;;;5.88;4.65;;;;;;;15.96;56.58;95222.56;5095839;28;20275;-64
2023/10/01 02:16:34;;;;;;;5.38;4.53;;;;;;;15.94;56.46;95222.16;5079289;28;20277;-64
2023/10/01 02:19:26;;;;;;;5.40;4.68;;;;;;;15.96;56.35;95232.91;5096193;28;20188;-64
2023/10/01 02:22:00;;;;;;;5.05;4.65;;;;;;;15.92;56.45;95220.94;5078828;28;20287;-64
2023/10/01 02:24:44;;;;;;;5.95;4.90;;;;;;;15.98;55.76;95224.97;5078175;28;20196;-65
2023/10/01 02:27:20;;;;;;;5.05;4.47;;;;;;;16.09;54.89;95223.09;5077865;28;20198;-65
2023/10/01 02:30:11;;;;;;;5.43;4.38;;;;;;;16.25;53.27;95231.97;5095357;28;20299;-65
2023/10/01 02:32:49;;;;;;;5.15;4.32;;;;;;;16.42;52.21;95219.38;5077647;28;20227;-65
2023/10/01 02:35:40;;;;;;;5.20;4.70;;;;;;;16.55;51.72;95212.28;5095941;28;20185;-64
2023/10/01 02:38:36;;;;;;;5.95;4.95;;;;;;;16.64;51.07;95216.72;5077837;28;20201;-64
2023/10/01 02:41:02;;;;;;;4.78;4.43;;;;;;;16.73;50.74;95217.16;5077866;28;20631;-64
2023/10/01 02:43:33;;;;;;;5.47;4.97;;;;;;;16.77;50.29;95213.22;5095535;28;20192;-64
2023/10/01 02:46:16;;;;;;;4.72;4.32;;;;;;;16.83;50.53;95213.69;5077980;28;20192;-64
2023/10/01 02:48:49;;;;;;;5.28;4.55;;;;;;;16.88;49.96;95218.88;5077688;28;20228;-65
2023/10/01 02:51:16;;;;;;;5.10;4.70;;;;;;;16.91;49.66;95211.72;5078152;28;20196;-65
2023/10/01 02:56:37;;;;;;;5.43;4.93;;;;;;;16.97;49.72;95207.38;5077153;28;20204;-65
2023/10/01 02:59:09;;;;;;;5.93;4.80;;;;;;;17.02;49.59;95212.56;5076468;28;20243;-65
2023/10/01 03:01:42;;;;;;;4.93;4.45;;;;;;;17.03;49.68;95211.38;5082011;28;20210;-65
2023/10/01 03:04:15;;;;;;;5.78;4.90;;;;;;;17.03;50.19;95211.38;5115769;28;20179;-65
2023/10/01 03:06:47;;;;;;;7.70;5.45;;;;;;;16.80;52.07;95217.25;5098128;28;20191;-65
2023/10/01 03:09:29;;;;;;;6.65;5.45;;;;;;;16.51;53.12;95216.22;5115241;28;20233;-65
2023/10/01 03:12:25;;;;;;;5.63;4.95;;;;;;;16.25;54.36;95215.25;5115480;28;20626;-65
2023/10/01 03:15:00;;;;;;;7.05;5.30;;;;;;;16.05;54.63;95211.09;5115718;28;20300;-65
2023/10/01 03:17:34;;;;;;;8.07;5.72;;;;;;;15.93;55.14;95214.19;5097204;28;20619;-65
2023/10/01 03:20:15;;;;;;;6.13;5.53;;;;;;;15.79;55.88;95218.44;5098676;28;20203;-65
2023/10/01 03:22:51;;;;;;;6.68;5.93;;;;;;;15.67;56.47;95210.38;5098291;28;20208;-65
2023/10/01 03:25:20;;;;;;;7.18;6.03;;;;;;;15.60;56.64;95213.06;5098060;28;20294;-65
2023/10/01 03:27:50;;;;;;;8.15;6.45;;;;;;;15.46;56.83;95210.91;5097234;28;20228;-65
2023/10/01 03:30:23;;;;;;;6.88;5.82;;;;;;;15.44;57.26;95216.09;5115843;28;20222;-65
2023/10/01 03:32:53;;;;;;;9.25;6.63;;;;;;;15.40;57.28;95212.47;5097915;28;20223;-65
2023/10/01 03:35:21;;;;;;;6.30;5.60;;;;;;;15.35;57.52;95219.16;5119718;28;20235;-65
2023/10/01 03:38:09;;;;;;;6.55;5.95;;;;;;;15.33;57.69;95217.94;5101860;28;20191;-65
2023/10/01 03:40:58;;;;;;;7.45;6.07;;;;;;;15.30;58.00;95221.47;5101499;28;20204;-65
2023/10/01 03:43:36;;;;;;;8.15;6.88;;;;;;;15.26;58.16;95227.00;5119396;28;20268;-65
2023/10/01 03:46:13;;;;;;;8.10;5.65;;;;;;;15.22;58.07;95228.13;5101175;28;20599;-65
2023/10/01 03:54:19;;;;;;;6.43;5.88;;;;;;;15.08;58.58;95229.56;5094495;28;20211;-64
2023/10/01 03:56:56;;;;;;;6.47;5.75;;;;;;;15.03;58.72;95229.91;5102352;28;20252;-64
2023/10/01 03:59:27;;;;;;;7.63;6.28;;;;;;;14.94;58.65;95229.38;5119393;28;20230;-65
2023/10/01 04:02:02;;;;;;;6.07;5.45;;;;;;;14.84;59.04;95236.38;5119266;28;20263;-64
2023/10/01 04:04:32;;;;;;;6.28;5.70;;;;;;;14.80;59.34;95232.75;5118936;28;20252;-64
2023/10/01 04:07:09;;;;;;;6.43;5.82;;;;;;;14.75;59.18;95246.97;5119488;28;20187;-64
2023/10/01 04:09:46;;;;;;;7.20;6.28;;;;;;;14.76;59.49;95243.00;5101156;28;20221;-64
2023/10/01 04:12:19;;;;;;;7.85;6.22;;;;;;;14.74;59.59;95242.56;5100976;28;20194;-64
2023/10/01 04:14:52;;;;;;;7.22;6.15;;;;;;;14.75;59.27;95246.19;5118697;28;20607;-64
2023/10/01 04:17:20;;;;;;;6.63;6.00;;;;;;;14.78;59.51;95246.22;5101497;28;20184;-64
2023/10/01 04:19:57;;;;;;;8.80;6.28;;;;;;;14.75;59.87;95241.41;5101018;28;20196;-64
2023/10/01 04:22:25;;;;;;;8.00;6.20;;;;;;;14.73;59.66;95249.31;5100932;28;20217;-65
2023/10/01 04:25:10;;;;;;;7.15;6.45;;;;;;;14.71;59.69;95240.56;5118781;28;20204;-65
2023/10/01 04:27:41;;;;;;;6.65;6.03;;;;;;;14.71;59.58;95242.56;5101054;28;20196;-65
2023/10/01 04:30:12;;;;;;;7.40;6.03;;;;;;;14.73;59.88;95246.53;5118462;28;20227;-65
2023/10/01 04:32:41;;;;;;;11.48;7.00;;;;;;;14.73;59.85;95251.28;5100395;28;20642;-65
2023/10/01 04:35:14;;;;;;;8.70;6.45;;;;;;;14.73;60.02;95254.88;5101554;28;20188;-65
2023/10/01 04:37:47;;;;;;;6.80;6.00;;;;;;;14.69;59.91;95254.81;5100946;28;20522;-64
2023/10/01 04:43:04;;;;;;;8.10;6.47;;;;;;;14.64;60.20;95260.69;5118099;28;20281;-64
2023/10/01 04:45:36;;;;;;;10.43;6.63;;;;;;;14.67;60.51;95268.28;5117437;28;20192;-64
2023/10/01 04:48:15;;;;;;;8.18;6.82;;;;;;;14.68;60.51;95263.53;5118594;28;20188;-64
2023/10/01 04:50:45;;;;;;;9.27;6.93;;;;;;;14.68;60.57;95266.31;5100465;28;20302;-64
2023/10/01 04:53:13;;;;;;;8.45;6.25;;;;;;;14.67;60.79;95273.03;5100518;28;20722;-64
2023/10/01 04:55:57;;;;;;;11.50;6.72;;;;;;;14.65;60.87;95275.38;5117944;28;20720;-64
2023/10/01 04:58:26;;;;;;;9.88;6.43;;;;;;;14.68;61.07;95274.63;5100666;28;20242;-64
2023/10/01 05:00:58;;;;;;;10.38;6.10;;;;;;;14.68;61.12;95280.19;5083695;28;20277;-65
2023/10/01 05:03:38;;;;;;;7.95;6.57;;;;;;;14.67;61.05;95282.16;5099657;28;20219;-64
2023/10/01 05:06:08;;;;;;;8.18;6.50;;;;;;;14.68;61.01;95283.75;5118575;28;20271;-65
2023/10/01 05:08:41;;;;;;;7.50;5.82;;;;;;;14.69;60.84;95290.91;5118259;28;20184;-64
2023/10/01 05:11:11;;;;;;;7.32;5.90;;;;;;;14.71;60.81;95287.78;5100618;28;20207;-64
2023/10/01 05:13:40;;;;;;;7.07;5.78;;;;;;;14.72;61.03;95288.56;5100162;28;20592;-65
2023/10/01 05:16:12;;;;;;;9.80;6.32;;;;;;;14.73;61.29;95296.50;5117921;28;20191;-64
2023/10/01 05:18:42;;;;;;;8.07;5.70;;;;;;;14.75;61.55;95296.94;5117517;28;20192;-64
2023/10/01 05:21:13;;;;;;;8.65;5.63;;;;;;;14.81;61.57;95302.97;5083855;28;20220;-64
2023/10/01 05:23:42;;;;;;;7.00;6.10;;;;;;;14.90;60.53;95300.72;5118056;28;20196;-64
2023/10/01 05:26:11;;;;;;;6.95;5.95;;;;;;;14.97;60.38;95300.84;5117433;28;20241;-64
2023/10/01 05:28:44;;;;;;;9.40;5.95;;;;;;;15.04;60.01;95311.25;5117620;28;20184;-64
2023/10/01 05:31:15;;;;;;;7.10;5.97;;;;;;;15.10;59.52;95316.06;5099844;28;20279;-64
2023/10/01 05:33:45;;;;;;;8.57;6.32;;;;;;;15.08;60.21;95315.66;5100079;28;20203;-64
2023/10/01 05:36:20;;;;;;;7.07;6.38;;;;;;;15.08;60.11;95323.22;5117500;28;20185;-64
2023/10/01 05:38:48;;;;;;;7.43;5.60;;;;;;;15.10;59.46;95321.63;5117044;28;20200;-64
2023/10/01 05:41:15;;;;;;;9.20;6.20;;;;;;;15.13;59.34;95320.88;5099750;28;20277;-64
2023/10/01 05:43:47;;;;;;;9.52;5.97;;;;;;;15.17;59.08;95323.72;5117850;28;20191;-64
2023/10/01 05:46:17;;;;;;;9.15;5.70;;;;;;;15.22;58.97;95328.16;5100049;28;20191;-64
2023/10/01 05:48:49;;;;;;;9.02;6.53;;;;;;;15.26;58.28;95331.78;5099133;28;20192;-64
2023/10/01 05:51:19;;;;;;;8.15;6.05;;;;;;;15.29;58.68;95320.72;5083819;28;20220;-64
2023/10/01 05:53:48;;;;;;;9.52;5.93;;;;;;;15.32;58.53;95325.53;5116752;28;20599;-64
2023/10/01 05:56:17;;;;;;;9.27;6.07;;;;;;;15.36;58.08;95320.81;5082204;28;20272;-64
2023/10/01 05:58:45;;;;;;;9.05;6.38;;;;;;;15.43;57.90;95322.06;5086150;28;20633;-65
2023/10/01 06:01:17;;;;;;;8.82;6.25;;;;;;;15.47;58.10;95325.69;5096466;28;20173;-64
2023/10/01 06:03:51;;;;;;;8.05;5.68;;;;;;;15.52;57.74;95328.13;5096436;28;20604;-64
2023/10/01 06:06:25;;;;;;;7.82;6.05;;;;;;;15.57;57.81;95327.78;5078579;28;20206;-65
2023/10/01 06:08:58;;;;;;;10.55;5.80;;;;;;;15.63;57.78;95326.28;5079131;28;20199;-64
2023/10/01 06:11:39;;;;;;;8.38;5.65;;;;;;;15.69;58.48;95330.38;5079033;28;20643;-64
2023/10/01 06:14:07;;;;;;;8.25;6.10;;;;;;;15.74;58.32;95318.09;5095944;28;20499;-65
2023/10/01 06:16:37;;;;;;;6.38;5.78;;;;;;;15.79;58.15;95318.53;5077481;28;20219;-65
2023/10/01 06:19:11;;;;;;;7.25;5.75;;;;;;;15.88;58.16;95318.25;5079297;28;20212;-64
2023/10/01 06:21:39;;;;;;;10.75;7.05;;;;;;;15.94;58.23;95313.97;5096424;28;20188;-64
2023/10/01 06:24:11;;;;;;;8.13;7.25;;;;;;;16.00;58.08;95314.41;5096462;28;20206;-63
2023/10/01 06:26:42;;;;;;;10.10;8.07;;;;;;;16.05;57.92;95314.03;5078700;28;20203;-63
2023/10/01 06:29:13;;;;;;;8.65;6.95;;;;;;;16.11;57.35;95310.53;5078450;28;20253;-63
2023/10/01 06:32:00;;;;;;;9.15;6.72;;;;;;;16.19;57.70;95313.38;5078200;28;20212;-64
2023/10/01 06:34:33;;;;;;;8.35;6.80;;;;;;;16.26;57.78;95313.47;5078376;28;20200;-63
2023/10/01 06:37:01;;;;;;;6.85;6.10;;;;;;;16.33;57.43;95307.94;5095913;28;20185;-64
2023/10/01 06:39:30;;;;;;;7.88;6.40;;;;;;;16.41;57.37;95319.94;5095872;28;20259;-64
2023/10/01 06:42:18;;;;;;;7.97;6.15;;;;;;;16.48;57.46;95325.56;5095518;28;20198;-64
2023/10/01 06:44:48;;;;;;;7.88;6.53;;;;;;;16.59;57.17;95318.94;5077925;28;20227;-64
2023/10/01 06:47:16;;;;;;;7.00;6.38;;;;;;;16.69;57.46;95333.31;5096001;28;20203;-64
2023/10/01 06:50:12;;;;;;;7.28;6.57;;;;;;;16.79;57.24;95332.63;5096054;28;20188;-64
2023/10/01 06:52:41;;;;;;;7.55;6.75;;;;;;;16.89;57.26;95331.91;5095740;28;20246;-64
2023/10/01 06:55:25;;;;;;;11.23;7.25;;;;;;;16.98;57.22;95329.56;5077754;28;20200;-64
2023/10/01 06:57:53;;;;;;;11.07;7.85;;;;;;;17.08;57.32;95323.28;5095927;28;20246;-64
2023/10/01 07:00:32;;;;;;;10.43;8.00;;;;;;;17.19;57.74;95337.28;5077666;28;20206;-65
2023/10/01 07:03:16;;;;;;;8.68;7.80;;;;;;;17.25;58.11;95332.16;5077759;28;20529;-64
2023/10/01 07:05:51;;;;;;;9.07;8.15;;;;;;;17.32;58.30;95337.75;5078314;28;20200;-64
2023/10/01 07:08:20;;;;;;;10.48;8.15;;;;;;;17.38;58.63;95343.75;5094448;28;20199;-64
2023/10/01 07:10:53;;;;;;;10.77;8.45;;;;;;;17.46;58.21;95337.81;5077604;28;20216;-64
2023/10/01 07:13:24;;;;;;;10.13;9.00;;;;;;;17.57;58.43;95340.66;5078003;28;20202;-64
2023/10/01 07:15:55;;;;;;;12.20;8.35;;;;;;;17.71;58.64;95351.88;5095419;28;20194;-64
2023/10/01 07:18:25;;;;;;;10.90;8.65;;;;;;;17.82;58.42;95349.16;5078185;28;20282;-64
2023/10/01 07:20:54;;;;;;;12.68;8.18;;;;;;;17.90;58.45;95350.81;5095309;28;20185;-64
2023/10/01 07:23:21;;;;;;;12.93;9.95;;;;;;;17.96;58.47;95354.00;5077607;28;20213;-64
2023/10/01 07:25:49;;;;;;;11.23;8.75;;;;;;;17.98;58.22;95355.19;5094961;28;20176;-64
2023/10/01 07:28:18;;;;;;;10.23;9.23;;;;;;;18.04;58.34;95355.59;5095255;28;20180;-64
2023/10/01 07:30:51;;;;;;;10.73;9.07;;;;;;;18.09;58.12;95348.84;5095088;28;20204;-64
2023/10/01 07:33:21;;;;;;;13.02;10.02;;;;;;;18.16;58.13;95360.03;5095329;28;20195;-64
2023/10/01 07:35:58;;;;;;;11.77;9.13;;;;;;;18.22;58.20;95345.28;5078104;28;20196;-64
2023/10/01 07:38:46;;;;;;;12.82;9.63;;;;;;;18.34;58.73;95352.50;5078218;28;20260;-64
2023/10/01 07:41:18;;;;;;;12.57;9.38;;;;;;;18.43;58.17;95360.47;5095120;28;20199;-64
2023/10/01 07:43:45;;;;;;;11.13;9.25;;;;;;;18.55;58.03;95350.91;5095348;28;20196;-64
2023/10/01 07:46:14;;;;;;;11.75;9.80;;;;;;;18.66;57.88;95355.31;5076783;28;20197;-65
2023/10/01 07:48:47;;;;;;;11.90;9.88;;;;;;;18.74;57.76;95362.53;5077315;28;20246;-64
2023/10/01 07:51:26;;;;;;;12.75;9.70;;;;;;;18.80;57.31;95345.38;5077198;28;20212;-64
2023/10/01 07:53:59;;;;;;;11.05;9.45;;;;;;;18.87;57.45;95360.13;5094850;28;20267;-64
2023/10/01 07:56:27;;;;;;;12.55;9.98;;;;;;;18.95;57.22;95349.75;5077411;28;20204;-64
2023/10/01 07:59:16;;;;;;;19.38;10.38;;;;;;;19.09;56.97;95360.91;5095366;28;20275;-64
2023/10/01 08:02:08;;;;;;;26.80;10.60;;;;;;;19.23;56.69;95354.53;5075580;28;20495;-64
2023/10/01 08:05:00;;;;;;;13.55;9.73;;;;;;;19.38;56.63;95352.50;5094365;28;20199;-64
2023/10/01 08:07:39;;;;;;;12.15;9.25;;;;;;;19.56;55.90;95355.25;5095105;28;20204;-64
2023/10/01 08:10:17;;;;;;;14.93;9.25;;;;;;;19.66;56.32;95366.44;5077627;28;20208;-64
2023/10/01 08:13:06;;;;;;;12.30;9.65;;;;;;;19.76;55.94;95353.63;5094950;28;20219;-64
2023/10/01 08:15:57;;;;;;;15.98;10.15;;;;;;;19.92;56.59;95355.94;5077304;28;20283;-64
2023/10/01 08:18:34;;;;;;;14.65;9.25;;;;;;;20.07;55.41;95351.06;5077278;28;20327;-64
2023/10/01 08:21:04;;;;;;;11.57;9.30;;;;;;;20.18;55.35;95360.22;5080466;28;20273;-64
2023/10/01 08:23:33;;;;;;;12.00;8.95;;;;;;;20.19;54.67;95342.22;5099326;28;20184;-64
2023/10/01 08:26:39;;;;;;;15.88;10.00;;;;;;;20.22;54.87;95344.19;5098411;28;20192;-64
2023/10/01 08:28:57;;;;;;;13.70;10.05;;;;;;;20.33;55.17;95358.91;5097445;28;20216;-64
2023/10/01 08:36:54;;;;;;;11.98;8.73;;;;;;;20.64;53.81;95348.75;5078168;28;20587;-64
2023/10/01 08:39:34;;;;;;;14.07;9.45;;;;;;;20.82;53.82;95342.22;5098198;28;20188;-64
2023/10/01 08:42:08;;;;;;;12.05;8.55;;;;;;;20.90;52.43;95343.75;5079968;28;20188;-64
2023/10/01 08:44:45;;;;;;;12.52;9.43;;;;;;;20.95;52.12;95348.91;5097995;28;20502;-64
2023/10/01 08:47:31;;;;;;;11.02;8.73;;;;;;;21.06;52.13;95335.59;5098367;28;20180;-64
2023/10/01 08:53:10;;;;;;;18.25;9.63;;;;;;;21.36;51.84;95345.38;5080107;28;20228;-64
2023/10/01 08:56:04;;;;;;;16.60;9.13;;;;;;;21.43;51.69;95350.09;5080327;28;20204;-64
2023/10/01 08:58:48;;;;;;;9.32;8.32;;;;;;;21.54;51.25;95347.97;5090442;28;20235;-64
2023/10/01 09:01:20;;;;;;;11.05;8.55;;;;;;;21.68;50.20;95339.41;5100249;28;20214;-64
2023/10/01 09:06:58;;;;;;;12.48;8.65;;;;;;;21.90;49.19;95341.97;5116962;28;20653;-64
2023/10/01 09:09:27;;;;;;;13.00;8.48;;;;;;;21.95;49.08;95356.31;5117602;28;20641;-64
2023/10/01 09:12:19;;;;;;;13.32;8.25;;;;;;;22.02;48.66;95344.19;5100574;28;20223;-64
2023/10/01 09:14:49;;;;;;;12.45;9.10;;;;;;;22.09;49.16;95336.47;5099658;28;20195;-64
2023/10/01 09:17:26;;;;;;;10.43;8.65;;;;;;;22.19;48.93;95351.63;5100189;28;20596;-64
2023/10/01 09:19:54;;;;;;;10.77;8.55;;;;;;;22.22;47.37;95350.81;5117808;28;20187;-64
2023/10/01 09:22:42;;;;;;;10.52;8.73;;;;;;;22.25;46.96;95349.94;5117331;28;20202;-64
2023/10/01 09:25:25;;;;;;;9.68;7.63;;;;;;;22.30;47.09;95348.69;5099829;28;20195;-64
2023/10/01 09:28:04;;;;;;;12.98;8.73;;;;;;;22.29;46.66;95345.06;5100624;28;20262;-64
2023/10/01 09:30:47;;;;;;;12.43;9.60;;;;;;;22.33;47.48;95347.81;5117517;28;20188;-64
2023/10/01 09:33:34;;;;;;;14.35;9.48;;;;;;;22.46;46.88;95345.25;5117390;28;20190;-64
2023/10/01 09:36:02;;;;;;;14.95;10.40;;;;;;;22.58;46.27;95350.28;5117553;28;20184;-64
2023/10/01 09:38:35;;;;;;;11.98;9.43;;;;;;;22.60;46.18;95350.66;5099574;28;20196;-64
2023/10/01 09:41:04;;;;;;;15.60;10.00;;;;;;;22.63;45.29;95352.63;5117332;28;20203;-64
2023/10/01 09:43:38;;;;;;;13.20;9.68;;;;;;;22.75;45.79;95337.16;5099602;28;20199;-64
2023/10/01 09:46:07;;;;;;;20.58;9.98;;;;;;;22.88;45.48;95346.63;5099142;28;20198;-64
2023/10/01 09:48:36;;;;;;;13.00;9.43;;;;;;;22.93;44.97;95345.34;5117289;28;20186;-64
2023/10/01 09:51:14;;;;;;;13.13;9.25;;;;;;;23.00;44.41;95343.22;5099237;28;20263;-64
2023/10/01 09:53:48;;;;;;;10.18;8.60;;;;;;;23.05;44.65;95336.31;5099218;28;20195;-64
2023/10/01 09:56:26;;;;;;;12.07;9.80;;;;;;;23.07;44.59;95331.06;5117447;28;20187;-64
2023/10/01 09:59:01;;;;;;;12.40;9.10;;;;;;;23.07;45.01;95339.50;5103270;28;20313;-64
2023/10/01 10:01:35;;;;;;;13.00;8.85;;;;;;;23.16;44.66;95331.28;5079123;28;20198;-64
2023/10/01 10:04:05;;;;;;;9.43;7.28;;;;;;;23.22;42.34;95337.22;5096624;28;20223;-64
2023/10/01 10:06:34;;;;;;;10.48;8.02;;;;;;;23.25;42.63;95334.34;5096602;28;20188;-64
2023/10/01 10:09:08;;;;;;;12.45;8.35;;;;;;;23.26;42.48;95332.34;5096145;28;20197;-64
2023/10/01 10:11:40;;;;;;;9.52;8.10;;;;;;;23.35;42.95;95329.75;5096333;28;20291;-64
2023/10/01 10:14:56;;;;;;;24.33;9.27;;;;;;;23.46;43.32;95333.19;5078818;28;20291;-64
2023/10/01 10:18:15;;;;;;;16.23;8.98;;;;;;;23.43;42.51;95328.41;5078157;28;20188;-64
2023/10/01 10:21:03;;;;;;;10.30;8.20;;;;;;;23.33;42.26;95320.94;5095503;28;20216;-64
2023/10/01 10:23:33;;;;;;;9.32;7.45;;;;;;;23.35;41.60;95317.69;5077728;28;20296;-64
2023/10/01 10:26:14;;;;;;;7.90;7.10;;;;;;;23.45;41.83;95311.84;5061634;28;20213;-64
2023/10/01 10:28:56;;;;;;;10.00;7.57;;;;;;;23.56;41.15;95308.84;5095828;28;20218;-64
2023/10/01 10:31:32;;;;;;;8.95;7.05;;;;;;;23.58;41.49;95309.22;5095974;28;20278;-64
2023/10/01 10:34:36;;;;;;;8.98;7.88;;;;;;;23.63;41.73;95303.06;5079015;28;20224;-64
2023/10/01 10:37:06;;;;;;;10.27;7.68;;;;;;;23.71;41.44;95290.50;5078089;28;20231;-64
2023/10/01 10:40:12;;;;;;;9.10;7.88;;;;;;;23.77;41.31;95294.38;5078798;28;20196;-64
2023/10/01 10:42:41;;;;;;;11.27;7.82;;;;;;;23.77;41.55;95290.75;5078016;28;20279;-64
2023/10/01 10:45:22;;;;;;;8.80;7.45;;;;;;;23.78;41.83;95281.09;5095382;28;20204;-64
2023/10/01 10:48:07;;;;;;;9.57;8.23;;;;;;;23.55;41.88;95293.19;5095765;28;20514;-64
2023/10/01 10:50:48;;;;;;;11.65;8.65;;;;;;;23.47;42.21;95281.28;5078792;28;20294;-65
2023/10/01 10:53:20;;;;;;;9.32;7.82;;;;;;;23.62;42.12;95283.81;5095217;28;20632;-64
2023/10/01 10:56:08;;;;;;;11.50;9.50;;;;;;;23.73;42.21;95288.03;5077897;28;20200;-64
2023/10/01 10:59:01;;;;;;;11.52;9.00;;;;;;;23.83;42.30;95279.81;5089049;28;20330;-64
2023/10/01 11:01:43;;;;;;;10.35;9.02;;;;;;;23.86;42.25;95274.09;5115623;28;20172;-64
2023/10/01 11:04:12;;;;;;;10.48;9.30;;;;;;;23.91;41.17;95269.97;5098110;28;20229;-64
2023/10/01 11:06:42;;;;;;;10.90;9.20;;;;;;;23.91;41.74;95262.31;5097999;28;20200;-64
2023/10/01 11:09:22;;;;;;;11.07;9.98;;;;;;;23.96;41.76;95266.63;5098444;28;20200;-64
2023/10/01 11:11:50;;;;;;;13.77;9.82;;;;;;;24.00;40.69;95259.72;5115415;28;20653;-64
2023/10/01 11:14:25;;;;;;;9.65;8.18;;;;;;;24.03;41.19;95258.03;5098648;28;20195;-64
2023/10/01 11:16:58;;;;;;;11.02;8.95;;;;;;;24.12;40.99;95249.78;5097466;28;20212;-64
2023/10/01 11:19:28;;;;;;;11.30;8.63;;;;;;;24.08;40.83;95257.53;5098068;28;20195;-64
2023/10/01 11:21:59;;;;;;;12.02;9.27;;;;;;;23.94;41.35;95261.44;5115680;28;20208;-64
2023/10/01 11:24:34;;;;;;;9.48;8.15;;;;;;;23.66;41.73;95262.00;5115699;28;20296;-64
2023/10/01 11:27:20;;;;;;;9.20;8.10;;;;;;;23.38;42.29;95266.19;5098387;28;20203;-64
2023/10/01 11:30:21;;;;;;;10.05;8.48;;;;;;;23.14;42.72;95259.81;5097830;28;20618;-64
2023/10/01 11:35:36;;;;;;;9.25;8.35;;;;;;;22.82;43.79;95255.50;5115350;28;20168;-64
2023/10/01 11:38:18;;;;;;;12.23;8.13;;;;;;;22.69;44.30;95258.13;5115581;28;20188;-64
2023/10/01 11:43:39;;;;;;;9.48;8.10;;;;;;;22.49;44.83;95254.47;5098242;28;20207;-69
2023/10/01 11:46:29;;;;;;;11.43;7.97;;;;;;;22.45;45.25;95260.16;5115445;28;20262;-64
2023/10/01 11:49:03;;;;;;;8.88;7.85;;;;;;;22.52;45.28;95250.81;5097590;28;20227;-64
2023/10/01 11:51:48;;;;;;;11.95;8.23;;;;;;;22.64;44.98;95246.59;5098235;28;20196;-64
2023/10/01 11:54:17;;;;;;;10.05;7.80;;;;;;;22.84;44.71;95244.66;5115623;28;20176;-64
2023/10/01 11:57:01;;;;;;;9.68;7.85;;;;;;;22.89;43.89;95249.78;5119471;28;20198;-64
2023/10/01 11:59:33;;;;;;;10.52;8.18;;;;;;;22.85;44.01;95246.22;5102828;28;20239;-64
2023/10/01 12:02:20;;;;;;;11.27;8.32;;;;;;;22.74;43.50;95240.00;5099687;28;20184;-64
2023/10/01 12:04:56;;;;;;;8.68;7.53;;;;;;;22.60;44.08;95246.66;5081777;28;20487;-64
2023/10/01 12:07:32;;;;;;;11.55;8.50;;;;;;;22.48;44.66;95250.06;5080975;28;20334;-64
2023/10/01 12:10:04;;;;;;;10.80;8.95;;;;;;;22.34;45.33;95240.63;5098668;28;20206;-64
2023/10/01 12:12:36;;;;;;;11.45;8.85;;;;;;;22.25;45.53;95248.78;5098652;28;20235;-64
2023/10/01 12:17:48;;;;;;;10.77;8.57;;;;;;;22.11;46.37;95244.19;5079802;28;20653;-64
2023/10/01 12:20:23;;;;;;;13.00;8.80;;;;;;;;;;5098197;28;20717;-64
2023/10/01 12:23:10;;;;;;;10.25;8.27;;;;;;;21.99;46.53;95232.72;5080661;28;20199;-64
2023/10/01 12:25:46;;;;;;;10.20;8.40;;;;;;;21.92;47.02;95233.59;5098141;28;20283;-64
2023/10/01 12:28:18;;;;;;;10.25;8.80;;;;;;;21.88;47.71;95236.47;5080461;28;20214;-64
2023/10/01 12:30:57;;;;;;;13.10;8.77;;;;;;;21.81;48.01;95228.13;5080410;28;20201;-64
2023/10/01 12:33:38;;;;;;;12.07;9.35;;;;;;;21.78;49.10;95233.81;5080160;28;20212;-64
2023/10/01 12:36:11;;;;;;;12.27;8.52;;;;;;;21.77;48.29;95230.19;5098272;28;20275;-64
2023/10/01 12:38:38;;;;;;;10.50;8.68;;;;;;;21.94;48.16;95224.78;5081065;28;20222;-64